sensor_id;sensor_type;location;lat;lon;timestamp;pressure;altitude;pressure_sealevel;temperature;humidity
57606;BME280;43430;48.204;11.556;2023-03-03T00:00:09;96118.44;;;-0.30;100.00
57606;BME280;43430;48.204;11.556;2023-03-03T00:03:06;96121.00;;;-0.30;100.00
57606;BME280;43430;48.204;11.556;2023-03-03T00:05:58;96119.06;;;-0.28;100.00
57606;BME280;43430;48.204;11.556;2023-03-03T00:08:43;96116.03;;;-0.41;100.00
57606;BME280;43430;48.204;11.556;2023-03-03T00:11:12;96112.94;;;-0.45;100.00
57606;BME280;43430;48.204;11.556;2023-03-03T00:16:57;96115.69;;;-0.46;100.00
57606;BME280;43430;48.204;11.556;2023-03-03T00:20:45;96113.31;;;-0.40;100.00
57606;BME280;43430;48.204;11.556;2023-03-03T00:23:39;96109.19;;;-0.51;100.00
57606;BME280;43430;48.204;11.556;2023-03-03T00:30:35;96109.09;;;-0.59;100.00
57606;BME280;43430;48.204;11.556;2023-03-03T00:33:23;96115.66;;;-0.55;100.00
57606;BME280;43430;48.204;11.556;2023-03-03T00:46:24;96118.09;;;-0.71;100.00
57606;BME280;43430;48.204;11.556;2023-03-03T00:59:12;96130.00;;;-0.78;100.00
57606;BME280;43430;48.204;11.556;2023-03-03T01:05:34;96122.75;;;-0.75;100.00
57606;BME280;43430;48.204;11.556;2023-03-03T01:08:34;96122.50;;;-0.81;100.00
57606;BME280;43430;48.204;11.556;2023-03-03T01:11:50;96114.06;;;-0.83;100.00
57606;BME280;43430;48.204;11.556;2023-03-03T01:14:46;96123.31;;;-0.81;100.00
57606;BME280;43430;48.204;11.556;2023-03-03T01:17:42;96120.91;;;-0.82;100.00
57606;BME280;43430;48.204;11.556;2023-03-03T01:20:42;96124.44;;;-0.83;100.00
57606;BME280;43430;48.204;11.556;2023-03-03T01:23:51;96127.41;;;-0.96;100.00
57606;BME280;43430;48.204;11.556;2023-03-03T01:26:38;96120.00;;;-0.91;100.00
57606;BME280;43430;48.204;11.556;2023-03-03T01:29:39;96120.06;;;-0.83;100.00
57606;BME280;43430;48.204;11.556;2023-03-03T01:32:10;96120.44;;;-0.78;100.00
57606;BME280;43430;48.204;11.556;2023-03-03T01:37:59;96115.72;;;-0.82;100.00
57606;BME280;43430;48.204;11.556;2023-03-03T01:40:58;96117.03;;;-0.96;100.00
57606;BME280;43430;48.204;11.556;2023-03-03T01:43:46;96112.97;;;-0.99;100.00
57606;BME280;43430;48.204;11.556;2023-03-03T01:52:47;96107.63;;;-0.97;100.00
57606;BME280;43430;48.204;11.556;2023-03-03T01:55:33;96112.28;;;-1.01;100.00
57606;BME280;43430;48.204;11.556;2023-03-03T02:01:20;96105.13;;;-0.89;100.00
57606;BME280;43430;48.204;11.556;2023-03-03T02:04:11;96104.53;;;-0.83;100.00
57606;BME280;43430;48.204;11.556;2023-03-03T02:07:04;96109.88;;;-0.84;100.00
57606;BME280;43430;48.204;11.556;2023-03-03T02:12:58;96109.19;;;-0.86;100.00
57606;BME280;43430;48.204;11.556;2023-03-03T02:15:50;96107.28;;;-0.84;100.00
57606;BME280;43430;48.204;11.556;2023-03-03T02:18:19;96113.78;;;-0.80;100.00
57606;BME280;43430;48.204;11.556;2023-03-03T02:21:15;96113.44;;;-0.85;100.00
57606;BME280;43430;48.204;11.556;2023-03-03T02:24:20;96110.81;;;-1.03;100.00
57606;BME280;43430;48.204;11.556;2023-03-03T02:26:55;96114.75;;;-0.99;100.00
57606;BME280;43430;48.204;11.556;2023-03-03T02:32:25;96115.19;;;-0.86;100.00
57606;BME280;43430;48.204;11.556;2023-03-03T02:34:56;96110.22;;;-0.79;100.00
57606;BME280;43430;48.204;11.556;2023-03-03T02:37:28;96108.03;;;-0.74;100.00
57606;BME280;43430;48.204;11.556;2023-03-03T02:40:36;96107.50;;;-0.78;100.00
57606;BME280;43430;48.204;11.556;2023-03-03T02:43:18;96098.25;;;-0.80;100.00
57606;BME280;43430;48.204;11.556;2023-03-03T02:46:11;96099.50;;;-0.84;100.00
57606;BME280;43430;48.204;11.556;2023-03-03T02:48:39;96109.56;;;-0.81;100.00
57606;BME280;43430;48.204;11.556;2023-03-03T02:51:13;96099.81;;;-0.87;100.00
57606;BME280;43430;48.204;11.556;2023-03-03T02:53:41;96101.41;;;-0.86;100.00
57606;BME280;43430;48.204;11.556;2023-03-03T02:56:07;96103.59;;;-0.82;100.00
57606;BME280;43430;48.204;11.556;2023-03-03T03:01:31;96098.63;;;-0.75;100.00
57606;BME280;43430;48.204;11.556;2023-03-03T03:04:01;96105.03;;;-0.79;100.00
57606;BME280;43430;48.204;11.556;2023-03-03T03:06:29;96103.66;;;-0.74;100.00
57606;BME280;43430;48.204;11.556;2023-03-03T03:09:01;96107.22;;;-0.75;100.00
57606;BME280;43430;48.204;11.556;2023-03-03T03:11:33;96104.16;;;-0.70;100.00
57606;BME280;43430;48.204;11.556;2023-03-03T03:14:08;96116.59;;;-0.74;100.00
57606;BME280;43430;48.204;11.556;2023-03-03T03:16:49;96112.03;;;-0.62;100.00
57606;BME280;43430;48.204;11.556;2023-03-03T03:19:17;96107.25;;;-0.49;100.00
57606;BME280;43430;48.204;11.556;2023-03-03T03:21:43;96109.13;;;-0.41;100.00
57606;BME280;43430;48.204;11.556;2023-03-03T03:24:17;96105.84;;;-0.43;100.00
57606;BME280;43430;48.204;11.556;2023-03-03T03:26:59;96113.47;;;-0.41;100.00
57606;BME280;43430;48.204;11.556;2023-03-03T03:29:49;96117.09;;;-0.34;100.00
57606;BME280;43430;48.204;11.556;2023-03-03T03:32:18;96113.88;;;-0.28;100.00
57606;BME280;43430;48.204;11.556;2023-03-03T03:34:47;96115.25;;;-0.24;100.00
57606;BME280;43430;48.204;11.556;2023-03-03T03:37:15;96116.19;;;-0.25;100.00
57606;BME280;43430;48.204;11.556;2023-03-03T03:39:50;96110.34;;;-0.27;100.00
57606;BME280;43430;48.204;11.556;2023-03-03T03:42:26;96108.91;;;-0.21;100.00
57606;BME280;43430;48.204;11.556;2023-03-03T03:45:10;96111.59;;;-0.13;100.00
57606;BME280;43430;48.204;11.556;2023-03-03T03:47:44;96108.53;;;-0.09;100.00
57606;BME280;43430;48.204;11.556;2023-03-03T03:50:13;96109.53;;;-0.02;100.00
57606;BME280;43430;48.204;11.556;2023-03-03T03:52:44;96106.47;;;0.03;100.00
57606;BME280;43430;48.204;11.556;2023-03-03T03:55:18;96103.66;;;-0.12;100.00
57606;BME280;43430;48.204;11.556;2023-03-03T03:57:54;96111.16;;;-0.01;100.00
57606;BME280;43430;48.204;11.556;2023-03-03T04:00:26;96111.31;;;-0.02;100.00
57606;BME280;43430;48.204;11.556;2023-03-03T04:02:54;96112.75;;;-0.08;100.00
57606;BME280;43430;48.204;11.556;2023-03-03T04:05:20;96119.59;;;0.02;100.00
57606;BME280;43430;48.204;11.556;2023-03-03T04:07:49;96119.59;;;0.02;100.00
57606;BME280;43430;48.204;11.556;2023-03-03T04:10:14;96112.16;;;0.07;100.00
57606;BME280;43430;48.204;11.556;2023-03-03T04:12:48;96113.41;;;-0.06;100.00
57606;BME280;43430;48.204;11.556;2023-03-03T04:15:14;96113.75;;;-0.01;100.00
57606;BME280;43430;48.204;11.556;2023-03-03T04:17:40;96118.03;;;0.09;100.00
57606;BME280;43430;48.204;11.556;2023-03-03T04:20:06;96107.41;;;-0.06;100.00
57606;BME280;43430;48.204;11.556;2023-03-03T04:22:35;96110.44;;;-0.11;100.00
57606;BME280;43430;48.204;11.556;2023-03-03T04:25:17;96113.09;;;-0.03;100.00
57606;BME280;43430;48.204;11.556;2023-03-03T04:27:45;96119.00;;;0.08;100.00
57606;BME280;43430;48.204;11.556;2023-03-03T04:30:20;96120.03;;;0.15;100.00
57606;BME280;43430;48.204;11.556;2023-03-03T04:32:48;96114.53;;;0.18;100.00
57606;BME280;43430;48.204;11.556;2023-03-03T04:35:20;96120.66;;;0.17;100.00
57606;BME280;43430;48.204;11.556;2023-03-03T04:37:52;96113.97;;;0.06;100.00
57606;BME280;43430;48.204;11.556;2023-03-03T04:40:18;96110.34;;;-0.01;100.00
57606;BME280;43430;48.204;11.556;2023-03-03T04:42:43;96113.00;;;0.07;100.00
57606;BME280;43430;48.204;11.556;2023-03-03T04:45:14;96109.91;;;0.04;100.00
57606;BME280;43430;48.204;11.556;2023-03-03T04:47:52;96113.00;;;0.07;100.00
57606;BME280;43430;48.204;11.556;2023-03-03T04:53:06;96103.78;;;0.13;100.00
57606;BME280;43430;48.204;11.556;2023-03-03T04:55:37;96108.53;;;0.17;100.00
57606;BME280;43430;48.204;11.556;2023-03-03T04:58:11;96113.09;;;-0.03;100.00
57606;BME280;43430;48.204;11.556;2023-03-03T05:00:46;96111.88;;;0.10;100.00
57606;BME280;43430;48.204;11.556;2023-03-03T05:03:25;96101.69;;;0.16;100.00
57606;BME280;43430;48.204;11.556;2023-03-03T05:06:05;96108.66;;;0.16;100.00
57606;BME280;43430;48.204;11.556;2023-03-03T05:08:33;96112.88;;;0.17;100.00
57606;BME280;43430;48.204;11.556;2023-03-03T05:10:59;96118.44;;;0.22;100.00
57606;BME280;43430;48.204;11.556;2023-03-03T05:13:29;96111.25;;;0.16;100.00
57606;BME280;43430;48.204;11.556;2023-03-03T05:16:00;96114.47;;;0.10;100.00
57606;BME280;43430;48.204;11.556;2023-03-03T05:18:26;96114.03;;;0.14;100.00
57606;BME280;43430;48.204;11.556;2023-03-03T05:20:58;96114.63;;;0.08;100.00
57606;BME280;43430;48.204;11.556;2023-03-03T05:23:23;96114.47;;;0.10;100.00
57606;BME280;43430;48.204;11.556;2023-03-03T05:25:49;96112.63;;;0.28;100.00
57606;BME280;43430;48.204;11.556;2023-03-03T05:28:18;96114.88;;;0.23;100.00
57606;BME280;43430;48.204;11.556;2023-03-03T05:30:54;96119.72;;;0.18;100.00
57606;BME280;43430;48.204;11.556;2023-03-03T05:33:22;96118.47;;;0.30;100.00
57606;BME280;43430;48.204;11.556;2023-03-03T05:35:55;96126.91;;;0.32;100.00
57606;BME280;43430;48.204;11.556;2023-03-03T05:38:27;96121.72;;;0.32;100.00
57606;BME280;43430;48.204;11.556;2023-03-03T05:40:52;96120.13;;;0.31;100.00
57606;BME280;43430;48.204;11.556;2023-03-03T05:43:19;96123.03;;;0.36;100.00
57606;BME280;43430;48.204;11.556;2023-03-03T05:45:52;96124.66;;;0.37;100.00
57606;BME280;43430;48.204;11.556;2023-03-03T05:48:30;96129.66;;;0.31;100.00
57606;BME280;43430;48.204;11.556;2023-03-03T05:51:36;96128.19;;;0.28;100.00
57606;BME280;43430;48.204;11.556;2023-03-03T05:54:25;96130.72;;;0.20;100.00
57606;BME280;43430;48.204;11.556;2023-03-03T05:57:10;96145.38;;;0.29;100.00
57606;BME280;43430;48.204;11.556;2023-03-03T06:03:32;96153.16;;;0.29;100.00
57606;BME280;43430;48.204;11.556;2023-03-03T06:09:36;96145.47;;;0.45;100.00
57606;BME280;43430;48.204;11.556;2023-03-03T06:21:54;96170.44;;;0.46;100.00
57606;BME280;43430;48.204;11.556;2023-03-03T06:24:34;96169.53;;;0.56;100.00
57606;BME280;43430;48.204;11.556;2023-03-03T06:27:51;96166.66;;;0.67;100.00
57606;BME280;43430;48.204;11.556;2023-03-03T06:33:56;96162.81;;;0.45;100.00
57606;BME280;43430;48.204;11.556;2023-03-03T06:36:35;96168.19;;;0.52;100.00
57606;BME280;43430;48.204;11.556;2023-03-03T06:39:00;96168.31;;;0.42;100.00
57606;BME280;43430;48.204;11.556;2023-03-03T06:45:03;96174.72;;;0.56;100.00
57606;BME280;43430;48.204;11.556;2023-03-03T06:47:48;96169.53;;;0.56;100.00
57606;BME280;43430;48.204;11.556;2023-03-03T06:57:04;96169.44;;;0.74;100.00
57606;BME280;43430;48.204;11.556;2023-03-03T07:03:06;96176.41;;;0.73;100.00
57606;BME280;43430;48.204;11.556;2023-03-03T07:05:32;96178.41;;;0.87;100.00
57606;BME280;43430;48.204;11.556;2023-03-03T07:08:39;96175.16;;;0.85;100.00
57606;BME280;43430;48.204;11.556;2023-03-03T07:17:41;96182.00;;;0.86;100.00
57606;BME280;43430;48.204;11.556;2023-03-03T07:20:29;96183.88;;;1.10;100.00
57606;BME280;43430;48.204;11.556;2023-03-03T07:23:24;96182.03;;;1.03;100.00
57606;BME280;43430;48.204;11.556;2023-03-03T07:26:06;96186.91;;;0.98;100.00
57606;BME280;43430;48.204;11.556;2023-03-03T07:31:41;96189.50;;;1.06;100.00
57606;BME280;43430;48.204;11.556;2023-03-03T07:34:39;96185.28;;;1.05;100.00
57606;BME280;43430;48.204;11.556;2023-03-03T07:37:36;96191.41;;;0.95;100.00
57606;BME280;43430;48.204;11.556;2023-03-03T07:43:34;96201.25;;;1.18;100.00
57606;BME280;43430;48.204;11.556;2023-03-03T07:48:51;96208.22;;;1.17;100.00
57606;BME280;43430;48.204;11.556;2023-03-03T07:54:46;96198.66;;;1.18;100.00
57606;BME280;43430;48.204;11.556;2023-03-03T07:57:38;96198.03;;;1.32;100.00
57606;BME280;43430;48.204;11.556;2023-03-03T08:03:07;96199.53;;;1.51;100.00
57606;BME280;43430;48.204;11.556;2023-03-03T08:15:24;96192.25;;;1.63;100.00
57606;BME280;43430;48.204;11.556;2023-03-03T08:18:13;96188.50;;;1.49;100.00
57606;BME280;43430;48.204;11.556;2023-03-03T08:21:04;96195.84;;;1.62;100.00
57606;BME280;43430;48.204;11.556;2023-03-03T08:26:57;96198.78;;;1.92;100.00
57606;BME280;43430;48.204;11.556;2023-03-03T08:29:32;96202.84;;;1.86;100.00
57606;BME280;43430;48.204;11.556;2023-03-03T08:32:05;96204.78;;;2.08;100.00
57606;BME280;43430;48.204;11.556;2023-03-03T08:35:03;96209.50;;;2.05;100.00
57606;BME280;43430;48.204;11.556;2023-03-03T08:37:34;96205.44;;;1.86;100.00
57606;BME280;43430;48.204;11.556;2023-03-03T08:40:02;96211.44;;;2.03;100.00
57606;BME280;43430;48.204;11.556;2023-03-03T08:42:34;96201.53;;;2.06;100.00
57606;BME280;43430;48.204;11.556;2023-03-03T08:45:02;96201.41;;;2.00;100.00
57606;BME280;43430;48.204;11.556;2023-03-03T08:47:28;96208.38;;;2.07;100.00
57606;BME280;43430;48.204;11.556;2023-03-03T08:50:14;96204.28;;;2.13;100.00
57606;BME280;43430;48.204;11.556;2023-03-03T08:52:43;96207.72;;;2.38;100.00
57606;BME280;43430;48.204;11.556;2023-03-03T08:55:11;96207.84;;;2.53;100.00
57606;BME280;43430;48.204;11.556;2023-03-03T08:57:49;96206.88;;;2.46;100.00
57606;BME280;43430;48.204;11.556;2023-03-03T09:00:19;96201.31;;;2.65;100.00
57606;BME280;43430;48.204;11.556;2023-03-03T09:02:48;96198.44;;;2.19;100.00
57606;BME280;43430;48.204;11.556;2023-03-03T09:05:17;96204.63;;;2.26;100.00
57606;BME280;43430;48.204;11.556;2023-03-03T09:07:46;96202.31;;;2.40;100.00
57606;BME280;43430;48.204;11.556;2023-03-03T09:10:25;96203.81;;;2.18;100.00
57606;BME280;43430;48.204;11.556;2023-03-03T09:13:11;96216.78;;;2.34;100.00
57606;BME280;43430;48.204;11.556;2023-03-03T09:15:47;96220.41;;;2.08;100.00
57606;BME280;43430;48.204;11.556;2023-03-03T09:18:18;96217.78;;;2.49;100.00
57606;BME280;43430;48.204;11.556;2023-03-03T09:20:48;96220.19;;;2.51;100.00
57606;BME280;43430;48.204;11.556;2023-03-03T09:23:34;96220.47;;;2.80;100.00
57606;BME280;43430;48.204;11.556;2023-03-03T09:26:23;96210.28;;;3.10;100.00
57606;BME280;43430;48.204;11.556;2023-03-03T09:28:53;96200.22;;;2.99;100.00
57606;BME280;43430;48.204;11.556;2023-03-03T09:32:12;96217.56;;;2.75;100.00
57606;BME280;43430;48.204;11.556;2023-03-03T09:34:24;96213.63;;;2.88;100.00
57606;BME280;43430;48.204;11.556;2023-03-03T09:36:53;96213.78;;;2.86;100.00
57606;BME280;43430;48.204;11.556;2023-03-03T09:39:23;96210.75;;;3.14;100.00
57606;BME280;43430;48.204;11.556;2023-03-03T10:00:35;96224.88;;;3.27;100.00
57606;BME280;43430;48.204;11.556;2023-03-03T10:08:39;96223.41;;;3.56;100.00
57606;BME280;43430;48.204;11.556;2023-03-03T10:11:17;96226.31;;;3.30;100.00
57606;BME280;43430;48.204;11.556;2023-03-03T10:13:54;96235.03;;;3.14;100.00
57606;BME280;43430;48.204;11.556;2023-03-03T10:19:14;96237.84;;;3.36;100.00
57606;BME280;43430;48.204;11.556;2023-03-03T10:24:53;96233.53;;;3.51;100.00
57606;BME280;43430;48.204;11.556;2023-03-03T10:30:03;96230.38;;;3.64;100.00
57606;BME280;43430;48.204;11.556;2023-03-03T10:32:42;96231.44;;;3.77;100.00
57606;BME280;43430;48.204;11.556;2023-03-03T10:54:16;96224.31;;;4.17;100.00
57606;BME280;43430;48.204;11.556;2023-03-03T10:57:00;96229.03;;;4.37;100.00
57606;BME280;43430;48.204;11.556;2023-03-03T10:59:42;96237.00;;;3.74;100.00
57606;BME280;43430;48.204;11.556;2023-03-03T11:02:21;96236.44;;;3.56;100.00
57606;BME280;43430;48.204;11.556;2023-03-03T11:10:20;96232.59;;;4.21;100.00
57606;BME280;43430;48.204;11.556;2023-03-03T11:18:48;96233.84;;;4.10;100.00
57606;BME280;43430;48.204;11.556;2023-03-03T11:21:18;96236.97;;;3.83;100.00
57606;BME280;43430;48.204;11.556;2023-03-03T11:39:57;96212.41;;;4.38;100.00
57606;BME280;43430;48.204;11.556;2023-03-03T11:42:46;96208.56;;;4.25;100.00
57606;BME280;43430;48.204;11.556;2023-03-03T11:45:24;96209.56;;;4.24;100.00
57606;BME280;43430;48.204;11.556;2023-03-03T11:50:57;96207.50;;;4.20;100.00
57606;BME280;43430;48.204;11.556;2023-03-03T12:09:00;96200.25;;;4.07;100.00
57606;BME280;43430;48.204;11.556;2023-03-03T12:11:37;96189.28;;;4.12;100.00
57606;BME280;43430;48.204;11.556;2023-03-03T12:22:51;96186.19;;;5.35;100.00
57606;BME280;43430;48.204;11.556;2023-03-03T12:25:38;96173.00;;;5.43;100.00
57606;BME280;43430;48.204;11.556;2023-03-03T12:28:19;96176.69;;;5.48;100.00
57606;BME280;43430;48.204;11.556;2023-03-03T12:33:44;96181.84;;;5.42;100.00
57606;BME280;43430;48.204;11.556;2023-03-03T12:39:06;96179.75;;;5.52;100.00
57606;BME280;43430;48.204;11.556;2023-03-03T12:41:45;96174.91;;;5.34;100.00
57606;BME280;43430;48.204;11.556;2023-03-03T12:44:26;96166.97;;;5.42;100.00
57606;BME280;43430;48.204;11.556;2023-03-03T12:49:42;96159.19;;;5.49;100.00
57606;BME280;43430;48.204;11.556;2023-03-03T12:52:23;96153.38;;;5.54;100.00
57606;BME280;43430;48.204;11.556;2023-03-03T12:57:36;96159.47;;;5.76;100.00
57606;BME280;43430;48.204;11.556;2023-03-03T13:00:37;96165.00;;;5.66;100.00
57606;BME280;43430;48.204;11.556;2023-03-03T13:06:22;96162.09;;;5.97;100.00
57606;BME280;43430;48.204;11.556;2023-03-03T13:09:25;96156.28;;;5.80;100.00
57606;BME280;43430;48.204;11.556;2023-03-03T13:15:34;96161.22;;;5.68;100.00
57606;BME280;43430;48.204;11.556;2023-03-03T13:17:45;96143.16;;;5.95;100.00
57606;BME280;43430;48.204;11.556;2023-03-03T13:23:09;96153.97;;;5.70;100.00
57606;BME280;43430;48.204;11.556;2023-03-03T13:28:23;96151.47;;;5.84;100.00
57606;BME280;43430;48.204;11.556;2023-03-03T13:30:56;96145.69;;;5.88;100.00
57606;BME280;43430;48.204;11.556;2023-03-03T13:33:34;96153.34;;;5.90;100.00
57606;BME280;43430;48.204;11.556;2023-03-03T13:36:04;96136.13;;;5.96;100.00
57606;BME280;43430;48.204;11.556;2023-03-03T13:38:45;96138.91;;;5.94;100.00
57606;BME280;43430;48.204;11.556;2023-03-03T13:44:11;96135.13;;;6.25;100.00
57606;BME280;43430;48.204;11.556;2023-03-03T13:52:08;96123.91;;;6.31;100.00
57606;BME280;43430;48.204;11.556;2023-03-03T14:03:08;96114.53;;;6.50;100.00
57606;BME280;43430;48.204;11.556;2023-03-03T14:05:55;96109.59;;;6.61;100.00
57606;BME280;43430;48.204;11.556;2023-03-03T14:16:57;96098.25;;;6.54;100.00
57606;BME280;43430;48.204;11.556;2023-03-03T14:19:51;96102.25;;;6.50;100.00
57606;BME280;43430;48.204;11.556;2023-03-03T14:22:26;96088.31;;;6.43;100.00
57606;BME280;43430;48.204;11.556;2023-03-03T14:24:59;96096.63;;;6.53;100.00
57606;BME280;43430;48.204;11.556;2023-03-03T14:27:33;96094.47;;;6.63;100.00
57606;BME280;43430;48.204;11.556;2023-03-03T14:29:58;96099.09;;;6.61;100.00
57606;BME280;43430;48.204;11.556;2023-03-03T14:32:26;96093.09;;;6.74;100.00
57606;BME280;43430;48.204;11.556;2023-03-03T14:34:58;96088.53;;;6.83;100.00
57606;BME280;43430;48.204;11.556;2023-03-03T14:37:44;96085.47;;;6.79;100.00
57606;BME280;43430;48.204;11.556;2023-03-03T14:45:28;96090.31;;;6.76;100.00
57606;BME280;43430;48.204;11.556;2023-03-03T14:47:56;96094.16;;;6.80;100.00
57606;BME280;43430;48.204;11.556;2023-03-03T14:50:37;96088.28;;;6.78;100.00
57606;BME280;43430;48.204;11.556;2023-03-03T14:55:53;96092.34;;;6.80;100.00
57606;BME280;43430;48.204;11.556;2023-03-03T14:58:39;96092.25;;;6.67;100.00
57606;BME280;43430;48.204;11.556;2023-03-03T15:01:14;96097.72;;;6.65;100.00
57606;BME280;43430;48.204;11.556;2023-03-03T15:03:57;96099.16;;;6.68;100.00
57606;BME280;43430;48.204;11.556;2023-03-03T15:06:41;96100.75;;;6.69;100.00
57606;BME280;43430;48.204;11.556;2023-03-03T15:09:33;96100.00;;;6.75;100.00
57606;BME280;43430;48.204;11.556;2023-03-03T15:12:33;96089.91;;;6.79;100.00
57606;BME280;43430;48.204;11.556;2023-03-03T15:15:16;96090.63;;;6.59;100.00
57606;BME280;43430;48.204;11.556;2023-03-03T15:20:33;96093.63;;;6.56;100.00
57606;BME280;43430;48.204;11.556;2023-03-03T15:23:31;96100.94;;;6.61;100.00
57606;BME280;43430;48.204;11.556;2023-03-03T15:31:48;96104.19;;;6.70;100.00
57606;BME280;43430;48.204;11.556;2023-03-03T15:40:26;96097.94;;;6.71;100.00
57606;BME280;43430;48.204;11.556;2023-03-03T15:48:59;96102.72;;;6.60;100.00
57606;BME280;43430;48.204;11.556;2023-03-03T15:56:49;96097.19;;;6.83;100.00
57606;BME280;43430;48.204;11.556;2023-03-03T16:02:12;96101.63;;;6.83;100.00
57606;BME280;43430;48.204;11.556;2023-03-03T16:04:55;96100.19;;;6.80;100.00
57606;BME280;43430;48.204;11.556;2023-03-03T16:10:56;96098.59;;;6.79;100.00
57606;BME280;43430;48.204;11.556;2023-03-03T16:27:25;96115.94;;;6.46;100.00
57606;BME280;43430;48.204;11.556;2023-03-03T16:32:42;96127.03;;;6.48;100.00
57606;BME280;43430;48.204;11.556;2023-03-03T16:35:21;96125.59;;;6.45;100.00
57606;BME280;43430;48.204;11.556;2023-03-03T16:38:07;96135.19;;;6.31;100.00
57606;BME280;43430;48.204;11.556;2023-03-03T16:40:36;96136.75;;;6.26;100.00
57606;BME280;43430;48.204;11.556;2023-03-03T16:43:37;96139.19;;;6.27;100.00
57606;BME280;43430;48.204;11.556;2023-03-03T16:49:02;96144.00;;;6.24;100.00
57606;BME280;43430;48.204;11.556;2023-03-03T16:55:23;96153.88;;;6.00;100.00
57606;BME280;43430;48.204;11.556;2023-03-03T16:57:53;96157.88;;;5.96;100.00
57606;BME280;43430;48.204;11.556;2023-03-03T17:00:29;96163.00;;;5.89;100.00
57606;BME280;43430;48.204;11.556;2023-03-03T17:05:43;96159.84;;;5.94;100.00
57606;BME280;43430;48.204;11.556;2023-03-03T17:25:19;96179.03;;;5.43;100.00
57606;BME280;43430;48.204;11.556;2023-03-03T17:31:02;96188.97;;;5.33;100.00
57606;BME280;43430;48.204;11.556;2023-03-03T17:44:42;96206.97;;;5.07;100.00
57606;BME280;43430;48.204;11.556;2023-03-03T17:47:14;96209.47;;;5.00;100.00
57606;BME280;43430;48.204;11.556;2023-03-03T17:50:04;96217.69;;;4.97;100.00
57606;BME280;43430;48.204;11.556;2023-03-03T17:55:18;96215.69;;;4.84;100.00
57606;BME280;43430;48.204;11.556;2023-03-03T18:00:36;96222.00;;;4.75;100.00
57606;BME280;43430;48.204;11.556;2023-03-03T18:03:44;96228.09;;;4.67;100.00
57606;BME280;43430;48.204;11.556;2023-03-03T18:11:47;96242.19;;;4.43;100.00
57606;BME280;43430;48.204;11.556;2023-03-03T18:19:55;96241.59;;;4.18;100.00
57606;BME280;43430;48.204;11.556;2023-03-03T18:22:31;96251.75;;;4.13;100.00
57606;BME280;43430;48.204;11.556;2023-03-03T18:25:09;96249.53;;;4.02;100.00
57606;BME280;43430;48.204;11.556;2023-03-03T18:27:40;96253.13;;;4.01;100.00
57606;BME280;43430;48.204;11.556;2023-03-03T18:35:31;96250.28;;;3.88;100.00
57606;BME280;43430;48.204;11.556;2023-03-03T18:40:57;96267.13;;;3.77;100.00
57606;BME280;43430;48.204;11.556;2023-03-03T18:44:00;96263.25;;;3.73;100.00
57606;BME280;43430;48.204;11.556;2023-03-03T18:49:03;96271.88;;;3.73;100.00
57606;BME280;43430;48.204;11.556;2023-03-03T19:04:39;96276.09;;;3.51;100.00
57606;BME280;43430;48.204;11.556;2023-03-03T19:18:21;96299.66;;;3.19;100.00
57606;BME280;43430;48.204;11.556;2023-03-03T19:23:32;96300.31;;;3.21;100.00
57606;BME280;43430;48.204;11.556;2023-03-03T19:31:45;96302.91;;;3.13;100.00
57606;BME280;43430;48.204;11.556;2023-03-03T19:34:19;96305.84;;;3.09;100.00
57606;BME280;43430;48.204;11.556;2023-03-03T19:37:00;96304.75;;;3.04;100.00
57606;BME280;43430;48.204;11.556;2023-03-03T19:47:47;96303.00;;;2.80;100.00
57606;BME280;43430;48.204;11.556;2023-03-03T19:58:18;96315.19;;;2.71;100.00
57606;BME280;43430;48.204;11.556;2023-03-03T20:01:12;96323.00;;;2.63;100.00
57606;BME280;43430;48.204;11.556;2023-03-03T20:09:48;96328.88;;;2.57;100.00
57606;BME280;43430;48.204;11.556;2023-03-03T20:12:31;96327.25;;;2.56;100.00
57606;BME280;43430;48.204;11.556;2023-03-03T20:15:11;96336.19;;;2.45;100.00
57606;BME280;43430;48.204;11.556;2023-03-03T20:22:48;96334.06;;;2.41;100.00
57606;BME280;43430;48.204;11.556;2023-03-03T20:25:38;96334.72;;;2.34;100.00
57606;BME280;43430;48.204;11.556;2023-03-03T20:28:23;96332.28;;;2.33;100.00
57606;BME280;43430;48.204;11.556;2023-03-03T20:35:57;96332.41;;;2.23;100.00
57606;BME280;43430;48.204;11.556;2023-03-03T20:47:30;96348.03;;;2.07;100.00
57606;BME280;43430;48.204;11.556;2023-03-03T20:57:14;96352.56;;;2.05;100.00
57606;BME280;43430;48.204;11.556;2023-03-03T21:00:25;96350.59;;;1.99;100.00
57606;BME280;43430;48.204;11.556;2023-03-03T21:02:34;96349.28;;;1.95;100.00
57606;BME280;43430;48.204;11.556;2023-03-03T21:07:35;96353.47;;;1.79;100.00
57606;BME280;43430;48.204;11.556;2023-03-03T21:10:15;96350.81;;;1.71;100.00
57606;BME280;43430;48.204;11.556;2023-03-03T21:12:41;96359.25;;;1.65;100.00
57606;BME280;43430;48.204;11.556;2023-03-03T21:15:21;96366.91;;;1.66;100.00
57606;BME280;43430;48.204;11.556;2023-03-03T21:17:47;96365.72;;;1.61;100.00
57606;BME280;43430;48.204;11.556;2023-03-03T21:20:34;96360.69;;;1.59;100.00
57606;BME280;43430;48.204;11.556;2023-03-03T21:23:00;96360.53;;;1.61;100.00
57606;BME280;43430;48.204;11.556;2023-03-03T21:25:50;96365.59;;;1.62;100.00
57606;BME280;43430;48.204;11.556;2023-03-03T21:28:26;96365.59;;;1.62;100.00
57606;BME280;43430;48.204;11.556;2023-03-03T21:36:17;96370.13;;;1.60;100.00
57606;BME280;43430;48.204;11.556;2023-03-03T21:38:43;96381.91;;;1.47;100.00
57606;BME280;43430;48.204;11.556;2023-03-03T21:41:14;96371.13;;;1.33;100.00
57606;BME280;43430;48.204;11.556;2023-03-03T21:43:48;96377.97;;;1.34;100.00
57606;BME280;43430;48.204;11.556;2023-03-03T21:46:22;96382.81;;;1.37;100.00
57606;BME280;43430;48.204;11.556;2023-03-03T21:48:48;96379.88;;;1.32;100.00
57606;BME280;43430;48.204;11.556;2023-03-03T21:51:14;96386.97;;;1.22;100.00
57606;BME280;43430;48.204;11.556;2023-03-03T21:53:43;96384.72;;;1.27;100.00